Mazama, Washington
Current Conditions -  °F | °C
As of 1:53 PM on Monday 20 Oct 2014 (Local Time) from KOMK Reporting Station
Overcast Overcast  
Wind Chill: 56°   Ceiling: 8000
Heat Index: 56°   Visibility: 10mi
Dew Point: 50°   Wind: 5mph
Humidity: 80%   Direction: 150°SSE
Pressure: 29.72"   Gusts: NA
Location:  48.59°N, 120.41°W
Report Text: KOMK 202053Z AUTO 15004KT 10SM OVC080 13/10 A2972 RMK AO2 RAE33 SLP067 P0000 60001 T01330100 58005
Loading
Personal Weather Stations






























Interactive Weather Map
Tropical Storm Tracking
New forecast layout! Learn more

10-Day Weather Forecast

Advertisements
Track Severe Weather on mobile